sensor_id;sensor_type;location;lat;lon;timestamp;pressure;altitude;pressure_sealevel;temperature;humidity
50682;BME280;36779;52.168;20.878;2023-03-29T00:00:15;100925.48;;;-3.66;65.44
50682;BME280;36779;52.168;20.878;2023-03-29T00:21:44;100929.92;;;-3.37;65.33
50682;BME280;36779;52.168;20.878;2023-03-29T00:24:14;100932.75;;;-3.29;65.07
50682;BME280;36779;52.168;20.878;2023-03-29T00:26:44;100929.35;;;-3.32;65.24
50682;BME280;36779;52.168;20.878;2023-03-29T00:29:14;100930.98;;;-3.33;65.28
50682;BME280;36779;52.168;20.878;2023-03-29T00:31:43;100928.81;;;-3.35;65.21
50682;BME280;36779;52.168;20.878;2023-03-29T00:34:23;100931.33;;;-3.37;65.32
50682;BME280;36779;52.168;20.878;2023-03-29T00:36:53;100928.96;;;-3.39;65.33
50682;BME280;36779;52.168;20.878;2023-03-29T00:39:25;100936.99;;;-3.44;65.48
50682;BME280;36779;52.168;20.878;2023-03-29T00:41:56;100932.04;;;-3.51;65.36
50682;BME280;36779;52.168;20.878;2023-03-29T00:45:02;100929.52;;;-3.58;65.35
50682;BME280;36779;52.168;20.878;2023-03-29T00:47:36;100929.05;;;-3.64;65.44
50682;BME280;36779;52.168;20.878;2023-03-29T00:50:11;100929.70;;;-3.71;65.26
50682;BME280;36779;52.168;20.878;2023-03-29T00:52:46;100922.41;;;-3.76;65.54
50682;BME280;36779;52.168;20.878;2023-03-29T00:55:21;100927.95;;;-3.80;65.45
50682;BME280;36779;52.168;20.878;2023-03-29T00:57:53;100930.17;;;-3.84;65.38
50682;BME280;36779;52.168;20.878;2023-03-29T01:00:28;100928.41;;;-3.88;65.47
50682;BME280;36779;52.168;20.878;2023-03-29T01:03:02;100927.70;;;-3.93;65.54
50682;BME280;36779;52.168;20.878;2023-03-29T01:05:39;100926.63;;;-3.96;65.53
50682;BME280;36779;52.168;20.878;2023-03-29T01:08:11;100924.44;;;-3.98;65.55
50682;BME280;36779;52.168;20.878;2023-03-29T01:10:52;100923.42;;;-3.99;65.35
50682;BME280;36779;52.168;20.878;2023-03-29T01:13:26;100922.84;;;-3.97;65.60
50682;BME280;36779;52.168;20.878;2023-03-29T01:16:04;100925.69;;;-3.95;65.52
50682;BME280;36779;52.168;20.878;2023-03-29T01:18:33;100924.79;;;-3.94;65.50
50682;BME280;36779;52.168;20.878;2023-03-29T01:21:11;100928.58;;;-3.93;65.53
50682;BME280;36779;52.168;20.878;2023-03-29T01:23:53;100930.29;;;-3.92;65.58
50682;BME280;36779;52.168;20.878;2023-03-29T01:26:32;100926.27;;;-3.91;65.62
50682;BME280;36779;52.168;20.878;2023-03-29T01:29:07;100926.95;;;-3.91;65.66
50682;BME280;36779;52.168;20.878;2023-03-29T01:31:43;100927.90;;;-3.93;65.65
50682;BME280;36779;52.168;20.878;2023-03-29T01:34:18;100924.72;;;-3.96;65.50
50682;BME280;36779;52.168;20.878;2023-03-29T01:36:52;100921.55;;;-3.99;65.51
50682;BME280;36779;52.168;20.878;2023-03-29T01:39:26;100924.92;;;-4.02;65.59
50682;BME280;36779;52.168;20.878;2023-03-29T01:42:04;100926.27;;;-4.05;65.65
50682;BME280;36779;52.168;20.878;2023-03-29T01:44:38;100928.06;;;-4.07;65.55
50682;BME280;36779;52.168;20.878;2023-03-29T01:47:15;100930.35;;;-4.08;65.71
50682;BME280;36779;52.168;20.878;2023-03-29T01:49:54;100926.60;;;-4.10;65.58
50682;BME280;36779;52.168;20.878;2023-03-29T01:52:27;100928.95;;;-4.12;65.74
50682;BME280;36779;52.168;20.878;2023-03-29T01:55:04;100931.77;;;-4.14;65.66
50682;BME280;36779;52.168;20.878;2023-03-29T01:57:36;100928.55;;;-4.15;65.55
50682;BME280;36779;52.168;20.878;2023-03-29T02:00:11;100928.78;;;-4.17;65.64
50682;BME280;36779;52.168;20.878;2023-03-29T02:02:43;100929.84;;;-4.18;65.53
50682;BME280;36779;52.168;20.878;2023-03-29T02:05:13;100927.39;;;-4.17;65.60
50682;BME280;36779;52.168;20.878;2023-03-29T02:07:45;100928.39;;;-4.16;65.66
50682;BME280;36779;52.168;20.878;2023-03-29T02:10:18;100928.58;;;-4.12;65.63
50682;BME280;36779;52.168;20.878;2023-03-29T02:12:48;100934.40;;;-4.09;65.68
50682;BME280;36779;52.168;20.878;2023-03-29T02:15:20;100938.14;;;-4.07;65.54
50682;BME280;36779;52.168;20.878;2023-03-29T02:17:51;100937.39;;;-4.06;65.54
50682;BME280;36779;52.168;20.878;2023-03-29T02:20:23;100939.56;;;-4.03;65.78
50682;BME280;36779;52.168;20.878;2023-03-29T02:22:59;100942.02;;;-3.99;65.81
50682;BME280;36779;52.168;20.878;2023-03-29T02:25:33;100944.34;;;-3.96;65.85
50682;BME280;36779;52.168;20.878;2023-03-29T02:28:03;100943.73;;;-3.98;65.69
50682;BME280;36779;52.168;20.878;2023-03-29T02:30:43;100943.67;;;-4.02;65.83
50682;BME280;36779;52.168;20.878;2023-03-29T02:33:21;100941.89;;;-4.05;65.74
50682;BME280;36779;52.168;20.878;2023-03-29T02:35:55;100939.77;;;-4.09;65.73
50682;BME280;36779;52.168;20.878;2023-03-29T02:38:26;100939.10;;;-4.09;65.88
50682;BME280;36779;52.168;20.878;2023-03-29T02:40:57;100941.25;;;-4.12;65.78
50682;BME280;36779;52.168;20.878;2023-03-29T02:43:29;100939.49;;;-4.16;65.84
50682;BME280;36779;52.168;20.878;2023-03-29T02:46:24;100943.22;;;-4.18;65.81
50682;BME280;36779;52.168;20.878;2023-03-29T02:48:54;100945.27;;;-4.22;65.81
50682;BME280;36779;52.168;20.878;2023-03-29T02:51:29;100947.80;;;-4.25;65.88
50682;BME280;36779;52.168;20.878;2023-03-29T02:54:02;100946.05;;;-4.29;65.66
50682;BME280;36779;52.168;20.878;2023-03-29T02:56:41;100948.81;;;-4.34;65.67
50682;BME280;36779;52.168;20.878;2023-03-29T02:59:10;100947.94;;;-4.39;65.69
50682;BME280;36779;52.168;20.878;2023-03-29T03:01:46;100947.27;;;-4.44;65.64
50682;BME280;36779;52.168;20.878;2023-03-29T03:04:16;100948.39;;;-4.46;65.73
50682;BME280;36779;52.168;20.878;2023-03-29T03:06:47;100946.05;;;-4.49;65.72
50682;BME280;36779;52.168;20.878;2023-03-29T03:09:17;100945.20;;;-4.50;65.72
50682;BME280;36779;52.168;20.878;2023-03-29T03:11:55;100946.70;;;-4.48;65.66
50682;BME280;36779;52.168;20.878;2023-03-29T03:14:29;100949.58;;;-4.46;65.61
50682;BME280;36779;52.168;20.878;2023-03-29T03:16:59;100944.84;;;-4.44;65.67
50682;BME280;36779;52.168;20.878;2023-03-29T03:19:35;100948.95;;;-4.42;65.67
50682;BME280;36779;52.168;20.878;2023-03-29T03:22:08;100953.90;;;-4.40;65.79
50682;BME280;36779;52.168;20.878;2023-03-29T03:24:39;100954.33;;;-4.38;65.82
50682;BME280;36779;52.168;20.878;2023-03-29T03:27:08;100954.39;;;-4.35;65.83
50682;BME280;36779;52.168;20.878;2023-03-29T03:29:37;100957.64;;;-4.28;65.97
50682;BME280;36779;52.168;20.878;2023-03-29T03:32:27;100957.54;;;-4.26;66.02
50682;BME280;36779;52.168;20.878;2023-03-29T03:35:42;100956.86;;;-4.26;65.94
50682;BME280;36779;52.168;20.878;2023-03-29T03:38:17;100955.27;;;-4.25;65.98
50682;BME280;36779;52.168;20.878;2023-03-29T03:40:53;100956.38;;;-4.27;66.12
50682;BME280;36779;52.168;20.878;2023-03-29T03:43:23;100956.81;;;-4.30;65.96
50682;BME280;36779;52.168;20.878;2023-03-29T03:45:56;100956.59;;;-4.33;65.98
50682;BME280;36779;52.168;20.878;2023-03-29T03:48:26;100955.14;;;-4.36;66.09
50682;BME280;36779;52.168;20.878;2023-03-29T03:51:01;100955.98;;;-4.40;65.91
50682;BME280;36779;52.168;20.878;2023-03-29T03:53:35;100955.27;;;-4.45;66.03
50682;BME280;36779;52.168;20.878;2023-03-29T03:56:16;100959.20;;;-4.48;66.04
50682;BME280;36779;52.168;20.878;2023-03-29T03:59:10;100958.81;;;-4.52;66.06
50682;BME280;36779;52.168;20.878;2023-03-29T04:02:02;100963.11;;;-4.56;65.96
50682;BME280;36779;52.168;20.878;2023-03-29T04:04:38;100963.40;;;-4.59;66.01
50682;BME280;36779;52.168;20.878;2023-03-29T04:07:18;100963.61;;;-4.61;66.10
50682;BME280;36779;52.168;20.878;2023-03-29T04:09:56;100967.47;;;-4.62;66.08
50682;BME280;36779;52.168;20.878;2023-03-29T04:12:44;100972.88;;;-4.63;65.96
50682;BME280;36779;52.168;20.878;2023-03-29T04:15:13;100975.33;;;-4.64;65.94
50682;BME280;36779;52.168;20.878;2023-03-29T04:17:48;100978.08;;;-4.63;66.04
50682;BME280;36779;52.168;20.878;2023-03-29T04:20:27;100980.77;;;-4.60;66.02
50682;BME280;36779;52.168;20.878;2023-03-29T04:22:56;100981.35;;;-4.57;66.05
50682;BME280;36779;52.168;20.878;2023-03-29T04:25:26;100981.73;;;-4.53;66.08
50682;BME280;36779;52.168;20.878;2023-03-29T04:28:23;100987.31;;;-4.48;66.23
50682;BME280;36779;52.168;20.878;2023-03-29T04:31:04;100987.61;;;-4.42;66.39
50682;BME280;36779;52.168;20.878;2023-03-29T04:33:45;100990.44;;;-4.33;66.36
50682;BME280;36779;52.168;20.878;2023-03-29T04:36:15;100986.42;;;-4.28;66.30
50682;BME280;36779;52.168;20.878;2023-03-29T04:38:45;100983.17;;;-4.24;66.42
50682;BME280;36779;52.168;20.878;2023-03-29T04:41:18;100979.17;;;-4.24;66.42
50682;BME280;36779;52.168;20.878;2023-03-29T04:43:54;100980.72;;;-4.23;66.37
50682;BME280;36779;52.168;20.878;2023-03-29T04:46:26;100985.20;;;-4.22;66.41
50682;BME280;36779;52.168;20.878;2023-03-29T04:49:16;100984.74;;;-4.24;66.43
50682;BME280;36779;52.168;20.878;2023-03-29T04:51:48;100990.21;;;-4.21;66.48
50682;BME280;36779;52.168;20.878;2023-03-29T04:54:20;100996.70;;;-4.19;66.52
50682;BME280;36779;52.168;20.878;2023-03-29T04:57:27;100997.64;;;-4.21;66.45
50682;BME280;36779;52.168;20.878;2023-03-29T05:00:05;100995.55;;;-4.20;66.52
50682;BME280;36779;52.168;20.878;2023-03-29T05:03:00;100990.27;;;-4.18;66.63
50682;BME280;36779;52.168;20.878;2023-03-29T05:05:34;100988.85;;;-4.18;66.59
50682;BME280;36779;52.168;20.878;2023-03-29T05:08:03;100996.11;;;-4.17;66.63
50682;BME280;36779;52.168;20.878;2023-03-29T05:10:42;100992.77;;;-4.15;66.61
50682;BME280;36779;52.168;20.878;2023-03-29T05:13:12;100997.65;;;-4.11;66.53
50682;BME280;36779;52.168;20.878;2023-03-29T05:15:42;100997.89;;;-4.08;66.45
50682;BME280;36779;52.168;20.878;2023-03-29T05:18:11;100997.86;;;-4.02;66.70
50682;BME280;36779;52.168;20.878;2023-03-29T05:20:40;100998.27;;;-3.94;66.61
50682;BME280;36779;52.168;20.878;2023-03-29T05:23:11;100996.27;;;-3.87;66.65
50682;BME280;36779;52.168;20.878;2023-03-29T05:26:05;100999.65;;;-3.80;66.60
50682;BME280;36779;52.168;20.878;2023-03-29T05:28:36;100998.35;;;-3.68;66.80
50682;BME280;36779;52.168;20.878;2023-03-29T05:31:06;100999.83;;;-3.56;66.92
50682;BME280;36779;52.168;20.878;2023-03-29T05:33:38;101003.52;;;-3.43;67.14
50682;BME280;36779;52.168;20.878;2023-03-29T05:36:14;101007.61;;;-3.28;67.21
50682;BME280;36779;52.168;20.878;2023-03-29T05:38:50;101005.70;;;-3.23;66.98
50682;BME280;36779;52.168;20.878;2023-03-29T05:41:26;101007.41;;;-3.22;67.08
50682;BME280;36779;52.168;20.878;2023-03-29T05:44:34;101004.09;;;-3.17;67.02
50682;BME280;36779;52.168;20.878;2023-03-29T05:47:12;101001.14;;;-3.13;66.99
50682;BME280;36779;52.168;20.878;2023-03-29T05:49:43;100999.95;;;-3.10;67.10
50682;BME280;36779;52.168;20.878;2023-03-29T05:52:17;101002.33;;;-3.03;67.07
50682;BME280;36779;52.168;20.878;2023-03-29T05:54:46;100997.05;;;-2.97;67.12
50682;BME280;36779;52.168;20.878;2023-03-29T05:57:17;100998.94;;;-2.93;67.20
50682;BME280;36779;52.168;20.878;2023-03-29T05:59:47;100997.83;;;-2.87;67.26
50682;BME280;36779;52.168;20.878;2023-03-29T06:02:18;100998.09;;;-2.80;67.21
50682;BME280;36779;52.168;20.878;2023-03-29T06:04:51;100997.80;;;-2.48;67.76
50682;BME280;36779;52.168;20.878;2023-03-29T06:07:25;101002.48;;;-1.71;68.71
50682;BME280;36779;52.168;20.878;2023-03-29T06:10:13;101003.56;;;-1.29;68.18
50682;BME280;36779;52.168;20.878;2023-03-29T06:12:47;101004.58;;;-1.03;68.16
50682;BME280;36779;52.168;20.878;2023-03-29T06:15:21;101001.31;;;-0.68;68.24
50682;BME280;36779;52.168;20.878;2023-03-29T06:18:04;100997.31;;;-0.02;68.76
50682;BME280;36779;52.168;20.878;2023-03-29T06:20:35;100999.10;;;0.63;69.11
50682;BME280;36779;52.168;20.878;2023-03-29T06:23:08;100998.44;;;1.40;69.36
50682;BME280;36779;52.168;20.878;2023-03-29T06:25:38;100996.38;;;2.25;69.60
50682;BME280;36779;52.168;20.878;2023-03-29T06:28:07;100998.29;;;2.84;69.36
50682;BME280;36779;52.168;20.878;2023-03-29T06:30:37;100994.67;;;3.37;69.24
50682;BME280;36779;52.168;20.878;2023-03-29T06:33:06;101001.02;;;4.28;69.88
50682;BME280;36779;52.168;20.878;2023-03-29T06:35:49;101000.32;;;5.12;69.43
50682;BME280;36779;52.168;20.878;2023-03-29T06:38:22;100999.64;;;5.41;67.96
50682;BME280;36779;52.168;20.878;2023-03-29T06:41:11;101001.52;;;5.51;67.32
50682;BME280;36779;52.168;20.878;2023-03-29T06:44:05;101003.90;;;5.40;66.64
50682;BME280;36779;52.168;20.878;2023-03-29T06:46:39;101006.19;;;5.59;66.65
50682;BME280;36779;52.168;20.878;2023-03-29T06:49:12;101006.52;;;5.71;66.64
50682;BME280;36779;52.168;20.878;2023-03-29T06:51:59;101005.59;;;5.83;66.61
50682;BME280;36779;52.168;20.878;2023-03-29T06:54:28;101006.17;;;6.02;66.85
50682;BME280;36779;52.168;20.878;2023-03-29T06:57:01;101008.45;;;5.90;65.92
50682;BME280;36779;52.168;20.878;2023-03-29T06:59:34;101012.77;;;5.63;65.83
50682;BME280;36779;52.168;20.878;2023-03-29T07:02:13;101012.30;;;5.78;66.25
50682;BME280;36779;52.168;20.878;2023-03-29T07:04:52;101014.28;;;5.83;65.71
50682;BME280;36779;52.168;20.878;2023-03-29T07:07:30;101019.10;;;5.54;65.50
50682;BME280;36779;52.168;20.878;2023-03-29T07:10:23;101018.13;;;5.53;65.82
50682;BME280;36779;52.168;20.878;2023-03-29T07:13:28;101016.83;;;5.30;65.33
50682;BME280;36779;52.168;20.878;2023-03-29T07:15:58;101018.15;;;4.92;64.94
50682;BME280;36779;52.168;20.878;2023-03-29T07:18:46;101016.77;;;4.60;65.05
50682;BME280;36779;52.168;20.878;2023-03-29T07:21:35;101018.98;;;4.36;65.30
50682;BME280;36779;52.168;20.878;2023-03-29T07:24:06;101020.02;;;4.41;65.88
50682;BME280;36779;52.168;20.878;2023-03-29T07:26:38;101017.60;;;4.68;66.27
50682;BME280;36779;52.168;20.878;2023-03-29T07:29:17;101018.84;;;4.90;66.47
50682;BME280;36779;52.168;20.878;2023-03-29T07:31:46;101022.39;;;5.16;66.34
50682;BME280;36779;52.168;20.878;2023-03-29T07:34:38;101013.23;;;5.40;66.46
50682;BME280;36779;52.168;20.878;2023-03-29T07:37:08;101012.07;;;5.77;66.73
50682;BME280;36779;52.168;20.878;2023-03-29T07:39:40;101010.60;;;6.22;66.98
50682;BME280;36779;52.168;20.878;2023-03-29T07:42:39;101011.63;;;6.98;67.56
50682;BME280;36779;52.168;20.878;2023-03-29T07:45:11;101010.92;;;7.59;67.41
50682;BME280;36779;52.168;20.878;2023-03-29T07:47:55;101008.34;;;8.02;67.10
50682;BME280;36779;52.168;20.878;2023-03-29T07:50:26;101013.05;;;8.45;66.91
50682;BME280;36779;52.168;20.878;2023-03-29T07:52:57;101008.02;;;8.64;66.26
50682;BME280;36779;52.168;20.878;2023-03-29T07:55:30;101011.29;;;8.71;65.48
50682;BME280;36779;52.168;20.878;2023-03-29T07:58:20;101005.44;;;8.71;65.38
50682;BME280;36779;52.168;20.878;2023-03-29T08:00:49;101011.73;;;8.80;65.43
50682;BME280;36779;52.168;20.878;2023-03-29T08:03:44;101010.00;;;8.80;64.91
50682;BME280;36779;52.168;20.878;2023-03-29T08:06:14;101009.44;;;9.06;65.66
50682;BME280;36779;52.168;20.878;2023-03-29T08:08:44;101009.85;;;9.62;65.81
50682;BME280;36779;52.168;20.878;2023-03-29T08:11:19;101002.80;;;10.00;65.57
50682;BME280;36779;52.168;20.878;2023-03-29T08:13:58;100998.89;;;10.26;64.78
50682;BME280;36779;52.168;20.878;2023-03-29T08:16:28;100997.22;;;10.48;64.69
50682;BME280;36779;52.168;20.878;2023-03-29T08:19:13;100989.96;;;10.86;64.74
50682;BME280;36779;52.168;20.878;2023-03-29T08:21:53;100986.29;;;11.27;64.53
50682;BME280;36779;52.168;20.878;2023-03-29T08:24:24;100985.34;;;11.70;64.35
50682;BME280;36779;52.168;20.878;2023-03-29T08:26:57;100982.77;;;12.20;64.54
50682;BME280;36779;52.168;20.878;2023-03-29T08:29:26;100979.17;;;12.72;64.38
50682;BME280;36779;52.168;20.878;2023-03-29T08:31:57;100980.98;;;13.01;63.30
50682;BME280;36779;52.168;20.878;2023-03-29T08:34:26;100978.11;;;12.94;62.06
50682;BME280;36779;52.168;20.878;2023-03-29T08:37:17;100975.13;;;12.60;60.96
50682;BME280;36779;52.168;20.878;2023-03-29T08:39:50;100980.13;;;12.29;60.56
50682;BME280;36779;52.168;20.878;2023-03-29T08:46:09;100980.50;;;11.26;59.59
50682;BME280;36779;52.168;20.878;2023-03-29T08:48:42;100977.46;;;10.61;59.32
50682;BME280;36779;52.168;20.878;2023-03-29T08:51:21;100971.27;;;10.20;59.72
50682;BME280;36779;52.168;20.878;2023-03-29T08:53:52;100972.48;;;10.30;60.72
50682;BME280;36779;52.168;20.878;2023-03-29T08:56:28;100974.59;;;10.58;61.02
50682;BME280;36779;52.168;20.878;2023-03-29T08:59:02;100971.87;;;10.78;60.56
50682;BME280;36779;52.168;20.878;2023-03-29T09:01:37;100975.92;;;10.77;60.55
50682;BME280;36779;52.168;20.878;2023-03-29T09:04:08;100975.13;;;11.02;60.86
50682;BME280;36779;52.168;20.878;2023-03-29T09:07:11;100969.07;;;11.34;60.82
50682;BME280;36779;52.168;20.878;2023-03-29T09:09:44;100973.23;;;11.60;60.81
50682;BME280;36779;52.168;20.878;2023-03-29T09:12:40;100968.02;;;11.83;60.59
50682;BME280;36779;52.168;20.878;2023-03-29T09:15:14;100969.84;;;12.04;60.28
50682;BME280;36779;52.168;20.878;2023-03-29T09:18:01;100972.03;;;12.11;59.95
50682;BME280;36779;52.168;20.878;2023-03-29T09:20:40;100965.56;;;11.88;59.25
50682;BME280;36779;52.168;20.878;2023-03-29T09:23:20;100965.21;;;11.76;59.63
50682;BME280;36779;52.168;20.878;2023-03-29T09:26:25;100964.43;;;11.77;59.64
50682;BME280;36779;52.168;20.878;2023-03-29T09:29:34;100964.84;;;11.71;59.47
50682;BME280;36779;52.168;20.878;2023-03-29T09:32:15;100959.21;;;11.51;59.45
50682;BME280;36779;52.168;20.878;2023-03-29T09:34:55;100961.83;;;11.26;59.29
50682;BME280;36779;52.168;20.878;2023-03-29T09:37:32;100949.87;;;11.14;59.64
50682;BME280;36779;52.168;20.878;2023-03-29T09:40:09;100954.75;;;10.95;59.59
50682;BME280;36779;52.168;20.878;2023-03-29T09:42:54;100949.48;;;10.76;59.65
50682;BME280;36779;52.168;20.878;2023-03-29T09:45:24;100947.65;;;10.63;59.33
50682;BME280;36779;52.168;20.878;2023-03-29T09:47:56;100947.44;;;10.30;59.12
50682;BME280;36779;52.168;20.878;2023-03-29T09:50:31;100945.34;;;10.14;59.28
50682;BME280;36779;52.168;20.878;2023-03-29T09:53:04;100941.55;;;10.13;59.29
50682;BME280;36779;52.168;20.878;2023-03-29T09:55:36;100945.04;;;10.02;58.97
50682;BME280;36779;52.168;20.878;2023-03-29T09:58:21;100943.63;;;9.87;58.92
50682;BME280;36779;52.168;20.878;2023-03-29T10:00:55;100935.91;;;9.78;58.68
50682;BME280;36779;52.168;20.878;2023-03-29T10:03:27;100932.15;;;9.69;58.82
50682;BME280;36779;52.168;20.878;2023-03-29T10:06:10;100936.06;;;9.94;59.13
50682;BME280;36779;52.168;20.878;2023-03-29T10:08:47;100935.27;;;9.97;58.82
50682;BME280;36779;52.168;20.878;2023-03-29T10:11:21;100934.65;;;9.98;58.79
50682;BME280;36779;52.168;20.878;2023-03-29T10:13:52;100929.98;;;10.04;58.78
50682;BME280;36779;52.168;20.878;2023-03-29T10:16:27;100928.84;;;9.91;58.30
50682;BME280;36779;52.168;20.878;2023-03-29T10:19:22;100931.19;;;9.87;58.42
50682;BME280;36779;52.168;20.878;2023-03-29T10:21:52;100928.18;;;9.92;58.35
50682;BME280;36779;52.168;20.878;2023-03-29T10:24:24;100930.09;;;9.86;58.21
50682;BME280;36779;52.168;20.878;2023-03-29T10:26:56;100931.94;;;9.83;58.06
50682;BME280;36779;52.168;20.878;2023-03-29T10:29:27;100928.34;;;9.78;57.95
50682;BME280;36779;52.168;20.878;2023-03-29T10:32:13;100928.19;;;9.93;58.29
50682;BME280;36779;52.168;20.878;2023-03-29T10:34:46;100930.09;;;9.91;57.88
50682;BME280;36779;52.168;20.878;2023-03-29T10:37:16;100930.89;;;9.88;57.74
50682;BME280;36779;52.168;20.878;2023-03-29T10:39:47;100930.56;;;9.82;57.35
50682;BME280;36779;52.168;20.878;2023-03-29T10:42:21;100922.70;;;9.68;57.40
50682;BME280;36779;52.168;20.878;2023-03-29T10:44:56;100927.96;;;9.57;57.09
50682;BME280;36779;52.168;20.878;2023-03-29T10:47:25;100928.58;;;9.29;56.79
50682;BME280;36779;52.168;20.878;2023-03-29T10:50:07;100924.18;;;9.31;57.27
50682;BME280;36779;52.168;20.878;2023-03-29T10:52:40;100916.33;;;9.39;57.34
50682;BME280;36779;52.168;20.878;2023-03-29T10:55:12;100918.73;;;9.46;57.33
50682;BME280;36779;52.168;20.878;2023-03-29T10:57:49;100920.38;;;9.53;57.44
50682;BME280;36779;52.168;20.878;2023-03-29T11:00:28;100915.75;;;9.60;57.31
50682;BME280;36779;52.168;20.878;2023-03-29T11:03:10;100910.13;;;9.62;57.11
50682;BME280;36779;52.168;20.878;2023-03-29T11:05:50;100907.33;;;9.63;57.20
50682;BME280;36779;52.168;20.878;2023-03-29T11:08:27;100908.27;;;9.66;57.25
50682;BME280;36779;52.168;20.878;2023-03-29T11:11:08;100907.04;;;9.78;57.43
50682;BME280;36779;52.168;20.878;2023-03-29T11:13:50;100903.95;;;9.80;57.15
50682;BME280;36779;52.168;20.878;2023-03-29T11:16:33;100898.69;;;9.68;56.84
50682;BME280;36779;52.168;20.878;2023-03-29T11:19:20;100897.94;;;9.67;57.11
50682;BME280;36779;52.168;20.878;2023-03-29T11:21:58;100894.12;;;9.58;56.75
50682;BME280;36779;52.168;20.878;2023-03-29T11:24:44;100890.41;;;9.58;56.98
50682;BME280;36779;52.168;20.878;2023-03-29T11:27:26;100882.77;;;9.56;56.93
50682;BME280;36779;52.168;20.878;2023-03-29T11:30:05;100888.15;;;9.56;56.76
50682;BME280;36779;52.168;20.878;2023-03-29T11:32:41;100885.57;;;9.41;56.52
50682;BME280;36779;52.168;20.878;2023-03-29T11:35:28;100883.81;;;9.40;56.72
50682;BME280;36779;52.168;20.878;2023-03-29T11:38:12;100877.61;;;9.32;56.47
50682;BME280;36779;52.168;20.878;2023-03-29T11:40:52;100870.04;;;9.33;56.47
50682;BME280;36779;52.168;20.878;2023-03-29T11:43:28;100866.27;;;9.32;56.66
50682;BME280;36779;52.168;20.878;2023-03-29T11:46:06;100863.85;;;9.31;56.41
50682;BME280;36779;52.168;20.878;2023-03-29T11:48:39;100862.99;;;9.19;56.31
50682;BME280;36779;52.168;20.878;2023-03-29T11:51:16;100861.30;;;9.11;56.08
50682;BME280;36779;52.168;20.878;2023-03-29T11:53:55;100857.95;;;9.08;56.37
50682;BME280;36779;52.168;20.878;2023-03-29T11:56:33;100858.84;;;9.22;56.54
50682;BME280;36779;52.168;20.878;2023-03-29T11:59:09;100858.17;;;9.27;56.47
50682;BME280;36779;52.168;20.878;2023-03-29T12:01:43;100851.52;;;9.32;56.45
50682;BME280;36779;52.168;20.878;2023-03-29T12:04:18;100853.04;;;9.33;56.29
50682;BME280;36779;52.168;20.878;2023-03-29T12:06:53;100851.02;;;9.28;56.08
50682;BME280;36779;52.168;20.878;2023-03-29T12:09:30;100847.27;;;9.15;55.90
50682;BME280;36779;52.168;20.878;2023-03-29T12:12:06;100841.15;;;9.04;55.82
50682;BME280;36779;52.168;20.878;2023-03-29T12:14:48;100838.75;;;9.11;56.02
50682;BME280;36779;52.168;20.878;2023-03-29T12:17:26;100839.81;;;9.11;55.83
50682;BME280;36779;52.168;20.878;2023-03-29T12:20:04;100836.19;;;9.04;55.61
50682;BME280;36779;52.168;20.878;2023-03-29T12:22:37;100831.73;;;8.95;55.52
50682;BME280;36779;52.168;20.878;2023-03-29T12:25:13;100830.67;;;8.89;55.36
50682;BME280;36779;52.168;20.878;2023-03-29T12:27:58;100835.64;;;8.81;55.33
50682;BME280;36779;52.168;20.878;2023-03-29T12:30:41;100838.63;;;8.74;55.44
50682;BME280;36779;52.168;20.878;2023-03-29T12:33:29;100838.15;;;8.69;55.28
50682;BME280;36779;52.168;20.878;2023-03-29T12:37:04;100836.59;;;8.73;55.36
50682;BME280;36779;52.168;20.878;2023-03-29T12:40:03;100833.78;;;8.66;55.06
50682;BME280;36779;52.168;20.878;2023-03-29T12:42:54;100831.76;;;8.50;54.67
50682;BME280;36779;52.168;20.878;2023-03-29T12:45:54;100830.72;;;8.37;54.74
50682;BME280;36779;52.168;20.878;2023-03-29T12:48:26;100825.86;;;8.36;55.03
50682;BME280;36779;52.168;20.878;2023-03-29T12:51:00;100824.63;;;8.42;55.04
50682;BME280;36779;52.168;20.878;2023-03-29T12:53:34;100823.23;;;8.42;54.89
50682;BME280;36779;52.168;20.878;2023-03-29T12:56:11;100827.55;;;8.40;54.92
50682;BME280;36779;52.168;20.878;2023-03-29T12:58:49;100821.55;;;8.41;54.98
50682;BME280;36779;52.168;20.878;2023-03-29T13:01:27;100815.45;;;8.42;54.93
50682;BME280;36779;52.168;20.878;2023-03-29T13:04:19;100810.40;;;8.43;54.81
50682;BME280;36779;52.168;20.878;2023-03-29T13:06:58;100812.34;;;8.37;54.65
50682;BME280;36779;52.168;20.878;2023-03-29T13:09:47;100809.79;;;8.38;54.70
50682;BME280;36779;52.168;20.878;2023-03-29T13:12:24;100810.47;;;8.36;54.54
50682;BME280;36779;52.168;20.878;2023-03-29T13:14:56;100811.58;;;8.33;54.62
50682;BME280;36779;52.168;20.878;2023-03-29T13:17:33;100809.99;;;8.35;54.53
50682;BME280;36779;52.168;20.878;2023-03-29T13:20:22;100810.16;;;8.33;54.49
50682;BME280;36779;52.168;20.878;2023-03-29T13:23:12;100807.18;;;8.29;54.31
50682;BME280;36779;52.168;20.878;2023-03-29T13:25:58;100800.80;;;8.11;53.83
50682;BME280;36779;52.168;20.878;2023-03-29T13:28:40;100800.30;;;7.99;53.96
50682;BME280;36779;52.168;20.878;2023-03-29T13:31:27;100796.03;;;7.91;53.80
50682;BME280;36779;52.168;20.878;2023-03-29T13:34:08;100797.45;;;7.85;53.76
50682;BME280;36779;52.168;20.878;2023-03-29T13:36:56;100793.08;;;7.86;53.84
50682;BME280;36779;52.168;20.878;2023-03-29T13:39:31;100790.95;;;7.85;53.70
50682;BME280;36779;52.168;20.878;2023-03-29T13:42:19;100783.00;;;7.82;53.77
50682;BME280;36779;52.168;20.878;2023-03-29T13:44:50;100780.00;;;7.82;53.72
50682;BME280;36779;52.168;20.878;2023-03-29T13:47:39;100779.20;;;7.83;53.71
50682;BME280;36779;52.168;20.878;2023-03-29T13:50:19;100778.15;;;7.85;53.66
50682;BME280;36779;52.168;20.878;2023-03-29T13:52:58;100776.44;;;7.74;53.38
50682;BME280;36779;52.168;20.878;2023-03-29T13:55:30;100771.77;;;7.63;53.26
50682;BME280;36779;52.168;20.878;2023-03-29T13:58:10;100770.75;;;7.54;53.21
50682;BME280;36779;52.168;20.878;2023-03-29T14:00:44;100770.21;;;7.46;53.12